createdAt,value
2019-01-24T00:00:45.348Z,-0.80
2019-01-24T00:03:14.718Z,-0.80
2019-01-24T00:05:44.078Z,-0.90
2019-01-24T00:08:13.469Z,-0.90
2019-01-24T00:10:42.819Z,-0.90
2019-01-24T00:13:12.163Z,-0.90
2019-01-24T00:15:41.860Z,-0.90
2019-01-24T00:18:11.240Z,-0.90
2019-01-24T00:20:40.594Z,-0.90
2019-01-24T00:23:10.319Z,-0.90
2019-01-24T00:25:39.744Z,-0.90
2019-01-24T00:28:09.100Z,-0.90
2019-01-24T00:30:38.499Z,-0.90
2019-01-24T00:33:07.942Z,-0.90
2019-01-24T00:35:37.339Z,-0.90
2019-01-24T00:38:07.452Z,-0.90
2019-01-24T00:40:36.852Z,-0.90
2019-01-24T00:43:06.237Z,-0.90
2019-01-24T00:45:35.705Z,-0.90
2019-01-24T00:48:05.493Z,-0.90
2019-01-24T00:50:34.869Z,-0.90
2019-01-24T00:53:04.396Z,-0.90
2019-01-24T00:55:33.847Z,-0.90
2019-01-24T00:58:03.219Z,-0.90
2019-01-24T01:00:32.881Z,-0.90
2019-01-24T01:03:02.237Z,-0.90
2019-01-24T01:05:32.050Z,-0.90
2019-01-24T01:08:01.439Z,-0.90
2019-01-24T01:10:30.798Z,-0.90
2019-01-24T01:13:00.163Z,-0.90
2019-01-24T01:15:29.647Z,-0.90
2019-01-24T01:17:59.036Z,-0.90
2019-01-24T01:20:28.422Z,-0.90
2019-01-24T01:22:58.177Z,-0.90
2019-01-24T01:25:28.126Z,-0.80
2019-01-24T01:27:57.516Z,-0.80
2019-01-24T01:30:26.980Z,-0.80
2019-01-24T01:32:56.337Z,-0.80
2019-01-24T01:35:25.725Z,-0.90
2019-01-24T01:37:55.095Z,-0.80
2019-01-24T01:40:24.535Z,-0.80
2019-01-24T01:42:53.917Z,-0.80
2019-01-24T01:45:24.184Z,-0.80
2019-01-24T01:47:53.619Z,-0.80
2019-01-24T01:50:24.993Z,-0.80
2019-01-24T01:52:54.374Z,-0.80
2019-01-24T02:14:46.726Z,-3.60
2019-01-24T02:17:16.090Z,-3.40
2019-01-24T02:19:45.444Z,-3.00
2019-01-24T02:22:14.847Z,-2.70
2019-01-24T02:24:44.196Z,-2.40
2019-01-24T02:27:14.178Z,-2.20
2019-01-24T02:29:43.562Z,-2.00
2019-01-24T02:32:12.983Z,-1.80
2019-01-24T02:34:42.357Z,-1.70
2019-01-24T02:37:12.517Z,-1.60
2019-01-24T02:39:41.886Z,-1.50
2019-01-24T02:42:11.258Z,-1.40
2019-01-24T02:44:40.636Z,-1.30
2019-01-24T02:47:10.009Z,-1.20
2019-01-24T02:49:39.361Z,-1.20
2019-01-24T02:52:08.739Z,-1.10
2019-01-24T02:54:38.100Z,-1.10
2019-01-24T02:57:07.454Z,-1.00
2019-01-24T02:59:36.869Z,-1.00
2019-01-24T03:02:06.308Z,-0.90
2019-01-24T03:04:35.705Z,-0.90
2019-01-24T03:07:05.155Z,-0.90
2019-01-24T03:09:34.528Z,-0.90
2019-01-24T03:12:03.900Z,-0.80
2019-01-24T03:14:33.279Z,-0.80
2019-01-24T03:17:02.648Z,-0.80
2019-01-24T03:19:32.002Z,-0.80
2019-01-24T03:22:01.422Z,-0.80
2019-01-24T03:24:30.780Z,-0.80
2019-01-24T03:27:00.139Z,-0.80
2019-01-24T03:29:30.067Z,-0.80
2019-01-24T03:31:59.412Z,-0.80
2019-01-24T03:34:28.777Z,-0.80
2019-01-24T03:36:58.144Z,-0.70
2019-01-24T03:39:27.503Z,-0.70
2019-01-24T03:41:56.859Z,-0.70
2019-01-24T03:44:26.706Z,-0.70
2019-01-24T03:46:56.072Z,-0.60
2019-01-24T03:49:25.442Z,-0.60
2019-01-24T03:51:54.812Z,-0.60
2019-01-24T03:54:24.175Z,-0.60
2019-01-24T03:56:53.538Z,-0.60
2019-01-24T03:59:22.896Z,-0.60
2019-01-24T04:01:52.259Z,-0.50
2019-01-24T04:04:21.671Z,-0.50
2019-01-24T04:06:51.065Z,-0.50
2019-01-24T04:09:20.450Z,-0.50
2019-01-24T04:11:49.809Z,-0.50
2019-01-24T04:14:19.215Z,-0.50
2019-01-24T04:16:48.576Z,-0.50
2019-01-24T04:19:17.963Z,-0.40
2019-01-24T04:21:47.404Z,-0.40
2019-01-24T04:24:16.765Z,-0.40
2019-01-24T04:26:46.155Z,-0.40
2019-01-24T04:29:15.912Z,-0.40
2019-01-24T04:31:45.644Z,-0.40
2019-01-24T04:34:15.023Z,-0.40
2019-01-24T04:36:44.379Z,-0.40
2019-01-24T04:39:13.735Z,-0.30
2019-01-24T04:41:43.115Z,-0.30
2019-01-24T04:44:12.510Z,-0.40
2019-01-24T04:46:41.871Z,-0.30
2019-01-24T04:49:11.231Z,-0.30
2019-01-24T04:51:41.022Z,-0.30
2019-01-24T04:54:10.383Z,-0.30
2019-01-24T04:56:39.739Z,-0.30
2019-01-24T04:59:09.109Z,-0.30
2019-01-24T05:01:38.479Z,-0.30
2019-01-24T05:04:07.912Z,-0.30
2019-01-24T05:06:37.295Z,-0.30
2019-01-24T05:09:08.287Z,-0.30
2019-01-24T05:11:37.643Z,-0.30
2019-01-24T05:14:07.123Z,-0.30
2019-01-24T05:16:36.522Z,-0.30
2019-01-24T05:19:05.890Z,-0.30
2019-01-24T05:21:35.264Z,-0.30
2019-01-24T05:24:04.772Z,-0.20
2019-01-24T05:26:34.123Z,-0.20
2019-01-24T05:29:03.504Z,-0.20
2019-01-24T05:31:32.866Z,-0.20
2019-01-24T05:34:03.413Z,-0.20
2019-01-24T05:36:33.244Z,-0.20
2019-01-24T05:39:04.281Z,-0.20
2019-01-24T05:41:33.635Z,-0.20
2019-01-24T05:44:03.036Z,-0.10
2019-01-24T05:46:32.405Z,-0.10
2019-01-24T05:49:01.763Z,-0.10
2019-01-24T05:51:31.139Z,-0.10
2019-01-24T05:54:00.523Z,-0.10
2019-01-24T05:56:29.921Z,-0.10
2019-01-24T05:58:59.335Z,-0.10
2019-01-24T06:01:29.066Z,-0.10
2019-01-24T06:03:58.426Z,-0.10
2019-01-24T06:06:27.809Z,-0.10
2019-01-24T06:08:57.168Z,0.00
2019-01-24T06:11:26.535Z,0.00
2019-01-24T06:13:55.920Z,0.00
2019-01-24T06:16:25.274Z,0.00
2019-01-24T06:18:54.694Z,0.00
2019-01-24T06:21:25.244Z,0.00
2019-01-24T06:23:54.609Z,0.00
2019-01-24T06:26:23.971Z,0.00
2019-01-24T06:28:53.347Z,0.00
2019-01-24T06:31:22.708Z,0.00
2019-01-24T06:33:52.070Z,0.00
2019-01-24T06:36:21.758Z,0.00
2019-01-24T06:38:51.193Z,0.10
2019-01-24T06:41:20.549Z,0.10
2019-01-24T06:43:50.200Z,0.10
2019-01-24T06:46:19.559Z,0.10
2019-01-24T06:48:48.894Z,0.10
2019-01-24T06:51:18.273Z,0.10
2019-01-24T06:53:47.624Z,0.10
2019-01-24T06:56:17.007Z,0.10
2019-01-24T06:58:46.370Z,0.10
2019-01-24T07:01:15.729Z,0.10
2019-01-24T07:03:45.074Z,0.10
2019-01-24T07:06:14.863Z,0.10
2019-01-24T07:08:44.194Z,0.10
2019-01-24T07:11:13.554Z,0.10
2019-01-24T07:13:42.926Z,0.10
2019-01-24T07:16:12.274Z,0.10
2019-01-24T07:18:41.620Z,0.10
2019-01-24T07:21:10.990Z,0.10
2019-01-24T07:23:40.333Z,0.10
2019-01-24T07:26:09.694Z,0.10
2019-01-24T07:28:39.084Z,0.10
2019-01-24T07:31:08.442Z,0.10
2019-01-24T07:33:37.828Z,0.10
2019-01-24T07:36:07.208Z,0.10
2019-01-24T07:38:37.702Z,0.10
2019-01-24T07:41:09.652Z,0.10
2019-01-24T07:43:39.027Z,0.10
2019-01-24T07:46:08.449Z,0.20
2019-01-24T07:48:37.805Z,0.20
2019-01-24T07:51:07.646Z,0.20
2019-01-24T07:53:37.014Z,0.20
2019-01-24T07:56:06.845Z,0.20
2019-01-24T07:58:36.232Z,0.20
2019-01-24T08:01:05.955Z,0.20
2019-01-24T08:03:35.325Z,0.30
2019-01-24T08:06:09.122Z,0.30
2019-01-24T08:08:37.078Z,0.30
2019-01-24T08:11:06.447Z,0.30
2019-01-24T08:13:35.857Z,0.40
2019-01-24T08:16:05.336Z,0.40
2019-01-24T08:18:34.778Z,0.40
2019-01-24T08:21:04.137Z,0.40
2019-01-24T08:23:33.501Z,0.40
2019-01-24T08:26:02.873Z,0.40
2019-01-24T08:28:32.269Z,0.50
2019-01-24T08:31:01.655Z,0.50
2019-01-24T08:33:31.037Z,0.50
2019-01-24T08:36:20.531Z,0.60
2019-01-24T08:38:49.890Z,0.60
2019-01-24T08:41:19.667Z,0.60
2019-01-24T08:43:49.069Z,0.60
2019-01-24T08:46:18.436Z,0.60
2019-01-24T08:48:47.817Z,0.60
2019-01-24T08:51:17.200Z,0.70
2019-01-24T08:53:46.571Z,0.70
2019-01-24T08:56:15.944Z,0.70
2019-01-24T08:58:45.331Z,0.80
2019-01-24T09:01:14.689Z,0.80
2019-01-24T09:03:44.044Z,0.80
2019-01-24T09:06:13.423Z,0.80
2019-01-24T09:08:42.811Z,0.90
2019-01-24T09:11:12.179Z,0.80
2019-01-24T09:13:41.543Z,0.90
2019-01-24T09:16:10.926Z,0.90
2019-01-24T09:18:40.294Z,0.90
2019-01-24T09:21:10.523Z,0.90
2019-01-24T09:23:39.885Z,0.90
2019-01-24T09:26:09.262Z,0.90
2019-01-24T09:28:38.642Z,0.90
2019-01-24T09:31:08.012Z,0.90
2019-01-24T09:33:37.369Z,0.90
2019-01-24T09:36:06.833Z,1.00
2019-01-24T09:38:36.209Z,1.00
2019-01-24T09:41:05.646Z,0.90
2019-01-24T09:43:35.566Z,1.00
2019-01-24T09:46:04.986Z,1.00
2019-01-24T09:48:34.333Z,1.00
2019-01-24T09:51:03.710Z,1.00
2019-01-24T09:53:33.845Z,1.00
2019-01-24T09:56:03.216Z,1.00
2019-01-24T09:58:32.611Z,0.90
2019-01-24T10:01:01.980Z,1.00
2019-01-24T10:03:31.333Z,1.00
2019-01-24T10:06:01.031Z,1.00
2019-01-24T10:08:30.429Z,1.00
2019-01-24T10:10:59.762Z,1.10
2019-01-24T10:13:29.160Z,1.10
2019-01-24T10:15:58.521Z,1.10
2019-01-24T10:18:27.878Z,1.20
2019-01-24T10:20:57.299Z,1.20
2019-01-24T10:23:26.723Z,1.20
2019-01-24T10:25:56.067Z,1.20
2019-01-24T10:28:25.527Z,1.30
2019-01-24T10:30:54.901Z,1.30
2019-01-24T10:33:24.262Z,1.30
2019-01-24T10:35:53.624Z,1.30
2019-01-24T10:38:23.011Z,1.30
2019-01-24T10:40:52.359Z,1.40
2019-01-24T10:43:21.730Z,1.40
2019-01-24T10:45:52.169Z,1.40
2019-01-24T10:48:21.525Z,1.40
2019-01-24T10:50:51.535Z,1.50
2019-01-24T10:53:20.890Z,1.50
2019-01-24T10:55:50.250Z,1.60
2019-01-24T10:58:19.649Z,1.60
2019-01-24T11:00:48.978Z,1.60
2019-01-24T11:03:18.472Z,1.70
2019-01-24T11:05:47.932Z,1.70
2019-01-24T11:08:17.359Z,1.70
2019-01-24T11:10:46.729Z,1.70
2019-01-24T11:13:17.117Z,1.70
2019-01-24T11:15:46.481Z,1.70
2019-01-24T11:18:15.844Z,1.80
2019-01-24T11:20:45.288Z,1.80
2019-01-24T11:23:14.637Z,1.80
2019-01-24T11:25:44.005Z,1.90
2019-01-24T11:28:13.395Z,1.90
2019-01-24T11:30:42.752Z,1.90
2019-01-24T11:33:12.122Z,1.90
2019-01-24T11:35:41.734Z,2.00
2019-01-24T11:38:11.239Z,2.00
2019-01-24T11:40:40.596Z,2.00
2019-01-24T11:43:09.988Z,2.10
2019-01-24T11:45:41.554Z,2.10
2019-01-24T11:48:11.698Z,2.10
2019-01-24T11:50:41.076Z,2.10
2019-01-24T11:53:10.437Z,2.10
2019-01-24T11:55:39.799Z,2.10
2019-01-24T11:58:09.673Z,2.20
2019-01-24T12:00:41.578Z,2.20
2019-01-24T12:03:30.292Z,2.20
2019-01-24T12:05:59.652Z,2.20
2019-01-24T12:08:29.007Z,2.20
2019-01-24T12:10:58.414Z,2.30
2019-01-24T12:13:27.782Z,2.30
2019-01-24T12:15:57.139Z,2.30
2019-01-24T12:18:26.539Z,2.30
2019-01-24T12:20:55.900Z,2.30
2019-01-24T12:23:26.200Z,2.40
2019-01-24T12:25:55.611Z,2.40
2019-01-24T12:28:24.966Z,2.40
2019-01-24T12:30:54.333Z,2.40
2019-01-24T12:33:23.724Z,2.40
2019-01-24T12:35:53.075Z,2.40
2019-01-24T12:38:22.443Z,2.40
2019-01-24T12:40:52.199Z,2.40
2019-01-24T12:43:21.543Z,2.40
2019-01-24T12:45:50.915Z,2.40
2019-01-24T12:48:20.298Z,2.30
2019-01-24T12:50:50.185Z,2.30
2019-01-24T12:53:19.542Z,2.30
2019-01-24T12:55:48.928Z,2.30
2019-01-24T12:58:18.287Z,2.30
2019-01-24T13:00:47.641Z,2.20
2019-01-24T13:03:17.061Z,2.20
2019-01-24T13:05:46.410Z,2.20
2019-01-24T13:08:15.772Z,2.20
2019-01-24T13:10:45.156Z,2.20
2019-01-24T13:13:14.512Z,2.20
2019-01-24T13:15:43.934Z,2.20
2019-01-24T13:18:13.313Z,2.10
2019-01-24T13:20:42.683Z,2.20
2019-01-24T13:23:12.040Z,2.20
2019-01-24T13:25:42.225Z,2.20
2019-01-24T13:28:11.576Z,2.20
2019-01-24T13:30:40.933Z,2.20
2019-01-24T13:33:10.300Z,2.20
2019-01-24T13:35:39.663Z,2.20
2019-01-24T13:38:09.215Z,2.10
2019-01-24T13:40:38.575Z,2.10
2019-01-24T13:43:08.156Z,2.10
2019-01-24T13:45:38.013Z,2.10
2019-01-24T13:48:07.466Z,2.10
2019-01-24T13:50:36.830Z,2.10
2019-01-24T13:53:07.191Z,2.10
2019-01-24T13:55:36.568Z,2.10
2019-01-24T13:58:07.717Z,2.00
2019-01-24T14:00:37.660Z,2.00
2019-01-24T14:03:18.178Z,2.00
2019-01-24T14:05:47.608Z,2.00
2019-01-24T14:08:16.967Z,2.00
2019-01-24T14:10:46.345Z,2.00
2019-01-24T14:13:15.712Z,2.00
2019-01-24T14:15:45.080Z,2.00
2019-01-24T14:18:14.455Z,2.00
2019-01-24T14:20:44.139Z,2.00
2019-01-24T14:23:13.502Z,2.00
2019-01-24T14:25:42.918Z,2.00
2019-01-24T14:28:12.347Z,1.90
2019-01-24T14:30:41.700Z,1.90
2019-01-24T14:33:11.105Z,1.90
2019-01-24T14:35:40.433Z,1.90
2019-01-24T14:38:10.169Z,1.90
2019-01-24T14:40:39.550Z,1.90
2019-01-24T14:43:08.902Z,1.80
2019-01-24T14:45:38.254Z,1.80
2019-01-24T14:48:08.118Z,1.80
2019-01-24T14:50:38.498Z,1.80
2019-01-24T14:53:08.039Z,1.80
2019-01-24T14:55:38.429Z,1.80
2019-01-24T14:58:07.852Z,1.70
2019-01-24T15:00:41.993Z,1.80
2019-01-24T15:03:11.457Z,1.70
2019-01-24T15:05:40.817Z,1.70
2019-01-24T15:08:10.312Z,1.70
2019-01-24T15:10:39.667Z,1.70
2019-01-24T15:13:09.105Z,1.70
2019-01-24T15:15:38.542Z,1.70
2019-01-24T15:18:08.114Z,1.70
2019-01-24T15:20:37.465Z,1.70
2019-01-24T15:23:06.824Z,1.60
2019-01-24T15:25:36.245Z,1.70
2019-01-24T15:28:05.683Z,1.70
2019-01-24T15:30:35.043Z,1.60
2019-01-24T15:33:04.478Z,1.60
2019-01-24T15:35:33.848Z,1.60
2019-01-24T15:38:03.207Z,1.60
2019-01-24T15:40:34.521Z,1.60
2019-01-24T15:43:04.426Z,1.60
2019-01-24T15:45:33.850Z,1.50
2019-01-24T15:48:03.393Z,1.50
2019-01-24T15:50:32.760Z,1.50
2019-01-24T15:53:02.153Z,1.50
2019-01-24T15:55:31.512Z,1.50
2019-01-24T15:58:01.245Z,1.50
2019-01-24T16:00:34.077Z,1.50
2019-01-24T16:03:03.562Z,1.40
2019-01-24T16:05:32.951Z,1.40
2019-01-24T16:08:02.303Z,1.40
2019-01-24T16:10:32.903Z,1.40
2019-01-24T16:13:02.288Z,1.40
2019-01-24T16:15:35.710Z,1.40
2019-01-24T16:18:08.017Z,1.40
2019-01-24T16:20:37.713Z,1.40
2019-01-24T16:23:07.075Z,1.40
2019-01-24T16:25:37.617Z,1.40
2019-01-24T16:28:07.351Z,1.40
2019-01-24T16:30:37.710Z,1.30
2019-01-24T16:33:08.604Z,1.30
2019-01-24T16:35:38.180Z,1.30
2019-01-24T16:38:09.479Z,1.30
2019-01-24T16:40:38.749Z,1.30
2019-01-24T16:43:08.161Z,1.30
2019-01-24T16:45:37.549Z,1.30
2019-01-24T16:48:07.265Z,1.30
2019-01-24T16:50:36.634Z,1.30
2019-01-24T16:53:06.125Z,1.30
2019-01-24T16:55:35.516Z,1.30
2019-01-24T16:58:05.721Z,1.30
2019-01-24T17:00:40.124Z,1.30
2019-01-24T17:03:09.553Z,1.30
2019-01-24T17:05:39.003Z,1.30
2019-01-24T17:08:08.522Z,1.30
2019-01-24T17:10:37.984Z,1.30
2019-01-24T17:13:07.876Z,1.30
2019-01-24T17:15:37.222Z,1.30
2019-01-24T17:18:06.876Z,1.30
2019-01-24T17:20:36.225Z,1.30
2019-01-24T17:23:06.281Z,1.30
2019-01-24T17:25:35.744Z,1.30
2019-01-24T17:28:05.909Z,1.30
2019-01-24T17:30:35.434Z,1.30
2019-01-24T17:33:06.626Z,1.30
2019-01-24T17:35:36.056Z,1.30
2019-01-24T17:38:05.629Z,1.30
2019-01-24T17:40:36.618Z,1.30
2019-01-24T17:43:06.799Z,1.30
2019-01-24T17:45:36.164Z,1.30
2019-01-24T17:48:06.577Z,1.30
2019-01-24T17:50:35.961Z,1.30
2019-01-24T17:53:05.619Z,1.30
2019-01-24T17:55:42.335Z,1.30
2019-01-24T17:58:11.785Z,1.30
2019-01-24T18:00:42.992Z,1.30
2019-01-24T18:03:12.673Z,1.30
2019-01-24T18:05:42.026Z,1.20
2019-01-24T18:08:11.376Z,1.20
2019-01-24T18:10:40.783Z,1.20
2019-01-24T18:13:10.133Z,1.20
2019-01-24T18:15:39.646Z,1.30
2019-01-24T18:18:13.046Z,1.30
2019-01-24T18:20:42.512Z,1.30
2019-01-24T18:23:12.103Z,1.30
2019-01-24T18:25:41.583Z,1.30
2019-01-24T18:28:12.244Z,1.30
2019-01-24T18:30:42.117Z,1.30
2019-01-24T18:33:11.770Z,1.30
2019-01-24T18:35:41.137Z,1.30
2019-01-24T18:38:10.810Z,1.30
2019-01-24T18:40:40.888Z,1.30
2019-01-24T18:43:15.051Z,1.30
2019-01-24T18:45:51.444Z,1.30
2019-01-24T18:48:20.820Z,1.30
2019-01-24T18:50:51.039Z,1.30
2019-01-24T18:53:20.472Z,1.30
2019-01-24T18:55:49.826Z,1.30
2019-01-24T18:58:19.188Z,1.30
2019-01-24T19:00:48.559Z,1.30
2019-01-24T19:03:17.972Z,1.40
2019-01-24T19:05:48.261Z,1.30
2019-01-24T19:08:18.055Z,1.40
2019-01-24T19:10:47.465Z,1.30
2019-01-24T19:13:16.801Z,1.40
2019-01-24T19:15:46.163Z,1.40
2019-01-24T19:18:15.572Z,1.40
2019-01-24T19:20:44.991Z,1.40
2019-01-24T19:23:14.462Z,1.40
2019-01-24T19:25:43.884Z,1.30
2019-01-24T19:28:13.253Z,1.30
2019-01-24T19:30:42.773Z,1.30
2019-01-24T19:33:12.138Z,1.30
2019-01-24T19:35:41.507Z,1.30
2019-01-24T19:38:10.965Z,1.30
2019-01-24T19:40:40.336Z,1.30
2019-01-24T19:43:09.767Z,1.30
2019-01-24T19:45:39.251Z,1.30
2019-01-24T19:48:08.744Z,1.30
2019-01-24T19:50:38.106Z,1.30
2019-01-24T19:53:07.866Z,1.30
2019-01-24T19:55:37.756Z,1.30
2019-01-24T19:58:07.497Z,1.30
2019-01-24T20:00:37.040Z,1.30
2019-01-24T20:03:06.557Z,1.20
2019-01-24T20:05:35.924Z,1.20
2019-01-24T20:08:07.142Z,1.20
2019-01-24T20:10:36.505Z,1.20
2019-01-24T20:13:06.410Z,1.20
2019-01-24T20:15:35.772Z,1.20
2019-01-24T20:18:06.848Z,1.20
2019-01-24T20:20:37.634Z,1.20
2019-01-24T20:23:07.196Z,1.20
2019-01-24T20:25:36.639Z,1.20
2019-01-24T20:28:06.122Z,1.20
2019-01-24T20:30:36.056Z,1.10
2019-01-24T20:33:06.279Z,1.10
2019-01-24T20:35:42.841Z,1.10
2019-01-24T20:38:13.050Z,1.10
2019-01-24T20:40:42.419Z,1.10
2019-01-24T20:43:13.631Z,1.10
2019-01-24T20:45:42.935Z,1.10
2019-01-24T20:48:12.294Z,1.10
2019-01-24T20:50:41.774Z,1.10
2019-01-24T20:53:11.229Z,1.10
2019-01-24T20:55:40.737Z,1.10
2019-01-24T20:58:10.113Z,1.10
2019-01-24T21:00:39.481Z,1.10
2019-01-24T21:03:08.868Z,1.10
2019-01-24T21:05:39.014Z,1.10
2019-01-24T21:08:08.455Z,1.10
2019-01-24T21:10:39.107Z,1.10
2019-01-24T21:13:09.124Z,1.10
2019-01-24T21:15:38.512Z,1.10
2019-01-24T21:18:08.100Z,1.10
2019-01-24T21:20:37.599Z,1.10
2019-01-24T21:23:07.008Z,1.10
2019-01-24T21:25:36.363Z,1.10
2019-01-24T21:28:06.067Z,1.10
2019-01-24T21:30:37.622Z,1.10
2019-01-24T21:33:08.138Z,1.10
2019-01-24T21:35:37.537Z,1.10
2019-01-24T21:38:07.744Z,1.10
2019-01-24T21:40:37.206Z,1.10
2019-01-24T21:43:06.846Z,1.10
2019-01-24T21:45:38.393Z,1.10
2019-01-24T21:48:08.797Z,1.10
2019-01-24T21:50:38.645Z,1.10
2019-01-24T21:53:08.151Z,1.10
2019-01-24T21:55:37.686Z,1.10
2019-01-24T21:58:08.174Z,1.10
2019-01-24T22:00:37.676Z,1.10
2019-01-24T22:03:07.412Z,1.10
2019-01-24T22:05:37.021Z,1.10
2019-01-24T22:08:06.499Z,1.10
2019-01-24T22:10:35.931Z,1.00
2019-01-24T22:13:06.813Z,1.00
2019-01-24T22:15:36.351Z,1.00
2019-01-24T22:18:06.138Z,1.00
2019-01-24T22:20:35.589Z,1.00
2019-01-24T22:23:05.489Z,1.00
2019-01-24T22:25:35.903Z,1.00
2019-01-24T22:28:06.409Z,1.00
2019-01-24T22:30:43.637Z,1.00
2019-01-24T22:33:13.378Z,1.00
2019-01-24T22:35:42.729Z,1.00
2019-01-24T22:38:12.096Z,1.00
2019-01-24T22:40:41.491Z,1.00
2019-01-24T22:43:10.881Z,1.00
2019-01-24T22:45:40.319Z,0.90
2019-01-24T22:48:09.846Z,0.90
2019-01-24T22:50:39.211Z,0.90
2019-01-24T22:53:08.594Z,0.90
2019-01-24T22:55:38.367Z,0.90
2019-01-24T22:58:08.191Z,0.90
2019-01-24T23:00:54.218Z,0.90
2019-01-24T23:03:31.918Z,0.80
2019-01-24T23:06:01.373Z,0.80
2019-01-24T23:08:30.755Z,0.80
2019-01-24T23:11:00.184Z,0.80
2019-01-24T23:13:29.589Z,0.80
2019-01-24T23:15:59.607Z,0.80
2019-01-24T23:18:29.044Z,0.80
2019-01-24T23:20:58.441Z,0.80
2019-01-24T23:23:27.914Z,0.80
2019-01-24T23:25:57.675Z,0.80
2019-01-24T23:28:27.039Z,0.80
2019-01-24T23:30:56.415Z,0.80
2019-01-24T23:33:25.798Z,0.80
2019-01-24T23:35:55.886Z,0.80
2019-01-24T23:38:25.326Z,0.80
2019-01-24T23:40:54.683Z,0.80
2019-01-24T23:43:24.077Z,0.80
2019-01-24T23:45:53.430Z,0.80
2019-01-24T23:48:22.809Z,0.80
2019-01-24T23:50:52.293Z,0.70
2019-01-24T23:53:21.662Z,0.80
2019-01-24T23:55:51.050Z,0.80
2019-01-24T23:58:20.476Z,0.80
